Time;durP1;ratioP1;P1;durP2;ratioP2;P2;SDS_P1;SDS_P2;PMS_P1;PMS_P2;Temp;Humidity;BMP_temperature;BMP_pressure;BME280_temperature;BME280_humidity;BME280_pressure;Samples;Min_cycle;Max_cycle;Signal;HPM_P1;HPM_P2
2022/04/05 00:00:38;;;;;;;11.10;6.60;;;;;;;3.04;100.00;90601.69;4994629;28;20031;-66
2022/04/05 00:03:04;;;;;;;9.98;7.00;;;;;;;3.00;100.00;90596.19;4994587;28;20081;-66
2022/04/05 00:05:29;;;;;;;14.02;8.48;;;;;;;3.07;100.00;90596.66;4994442;28;20568;-67
2022/04/05 00:07:55;;;;;;;13.65;7.10;;;;;;;3.10;100.00;90603.22;4994464;28;20425;-66
2022/04/05 00:10:21;;;;;;;8.65;6.88;;;;;;;3.12;100.00;90607.13;4994687;28;20110;-66
2022/04/05 00:12:46;;;;;;;11.45;7.13;;;;;;;3.04;100.00;90599.06;4994442;28;20435;-67
2022/04/05 00:15:12;;;;;;;11.35;6.93;;;;;;;3.03;100.00;90595.66;4994434;28;20251;-67
2022/04/05 00:17:38;;;;;;;9.65;6.30;;;;;;;3.14;100.00;90584.00;4993106;28;20378;-67
2022/04/05 00:20:05;;;;;;;7.53;6.38;;;;;;;3.17;100.00;90594.00;4994379;28;20042;-67
2022/04/05 00:22:31;;;;;;;11.10;6.75;;;;;;;3.07;100.00;90594.03;4994291;28;20084;-67
2022/04/05 00:24:56;;;;;;;7.85;6.72;;;;;;;3.07;100.00;90591.41;4994075;28;20121;-67
2022/04/05 00:27:21;;;;;;;8.77;6.63;;;;;;;3.06;100.00;90592.47;4994254;28;20026;-66
2022/04/05 00:29:47;;;;;;;9.45;6.57;;;;;;;3.00;100.00;90588.31;4994164;28;20023;-67
2022/04/05 00:32:13;;;;;;;9.88;6.75;;;;;;;2.90;100.00;90570.75;4994180;28;20045;-66
2022/04/05 00:34:38;;;;;;;11.18;6.72;;;;;;;3.00;100.00;90588.31;4994052;28;20032;-67
2022/04/05 00:37:04;;;;;;;11.63;6.60;;;;;;;2.88;100.00;90577.31;4994013;28;20057;-67
2022/04/05 00:39:29;;;;;;;8.77;6.97;;;;;;;2.82;100.00;90568.66;4992733;28;20026;-67
2022/04/05 00:41:56;;;;;;;11.07;6.90;;;;;;;2.82;100.00;90570.50;4992600;28;20101;-67
2022/04/05 00:44:22;;;;;;;9.90;6.85;;;;;;;2.76;100.00;90575.00;4993873;28;20031;-66
2022/04/05 00:46:48;;;;;;;10.88;6.60;;;;;;;2.69;100.00;90571.91;4992537;28;20029;-67
2022/04/05 00:49:19;;;;;;;10.38;6.60;;;;;;;2.66;100.00;90556.66;4993862;28;20061;-66
2022/04/05 00:51:45;;;;;;;11.20;6.13;;;;;;;2.66;100.00;90564.53;4993817;28;20034;-66
2022/04/05 00:54:12;;;;;;;9.80;6.30;;;;;;;2.65;100.00;90553.25;4992374;28;20059;-67
2022/04/05 00:56:40;;;;;;;13.25;7.00;;;;;;;2.63;100.00;90554.59;4993633;28;20023;-67
2022/04/05 00:59:07;;;;;;;14.70;8.15;;;;;;;2.66;100.00;90554.81;4993892;28;20481;-66
2022/04/05 01:01:33;;;;;;;13.35;7.25;;;;;;;2.65;100.00;90549.84;4993660;28;20104;-67
2022/04/05 01:04:01;;;;;;;12.77;7.68;;;;;;;2.68;100.00;90547.50;4993723;28;20049;-67
2022/04/05 01:06:30;;;;;;;15.55;7.45;;;;;;;2.63;100.00;90539.63;4993351;28;20469;-67
2022/04/05 01:08:57;;;;;;;13.60;8.45;;;;;;;2.62;100.00;90542.50;4993436;28;20500;-67
2022/04/05 01:11:23;;;;;;;14.38;8.95;;;;;;;2.66;100.00;90552.19;4993374;28;20109;-67
2022/04/05 01:13:49;;;;;;;16.00;9.13;;;;;;;2.66;100.00;90549.56;4993338;28;20484;-66
2022/04/05 01:16:14;;;;;;;14.05;9.88;;;;;;;2.62;100.00;90548.56;4993295;28;20037;-67
2022/04/05 01:18:40;;;;;;;18.67;10.23;;;;;;;2.56;100.00;90533.09;4993300;28;20460;-67
2022/04/05 01:21:06;;;;;;;16.50;9.68;;;;;;;2.47;100.00;90529.44;4993223;28;20033;-67
2022/04/05 01:23:31;;;;;;;14.48;9.27;;;;;;;2.63;100.00;90538.81;4993065;28;20030;-67
2022/04/05 01:25:57;;;;;;;15.73;9.65;;;;;;;2.71;100.00;90538.28;4992967;28;20053;-67
2022/04/05 01:28:24;;;;;;;16.58;8.40;;;;;;;2.78;100.00;90541.38;4993309;28;20034;-67
2022/04/05 01:30:51;;;;;;;15.65;8.30;;;;;;;2.69;100.00;90537.78;4993044;28;20128;-67
2022/04/05 01:33:17;;;;;;;12.02;8.30;;;;;;;2.70;100.00;90541.97;4993252;28;20026;-68
2022/04/05 01:35:42;;;;;;;12.02;7.90;;;;;;;2.74;100.00;90542.19;4993025;28;20448;-67
2022/04/05 01:38:09;;;;;;;11.48;8.07;;;;;;;2.76;100.00;90540.09;4992925;28;20488;-66
2022/04/05 01:40:35;;;;;;;12.55;7.88;;;;;;;2.85;100.00;90533.22;4992939;28;20034;-67
2022/04/05 01:43:00;;;;;;;15.07;7.80;;;;;;;2.90;100.00;90535.81;4992874;28;20057;-66
2022/04/05 01:45:26;;;;;;;11.10;7.45;;;;;;;2.90;100.00;90533.97;4992659;28;20416;-66
2022/04/05 01:47:51;;;;;;;10.73;7.78;;;;;;;2.92;100.00;90531.84;4992694;28;20412;-66
2022/04/05 01:50:17;;;;;;;10.55;7.47;;;;;;;2.99;100.00;90542.03;4992645;28;20037;-66
2022/04/05 01:52:42;;;;;;;11.48;8.27;;;;;;;3.02;100.00;90543.38;4992625;28;20496;-66
2022/04/05 01:55:08;;;;;;;13.00;10.15;;;;;;;2.91;100.00;90540.78;4992547;28;20034;-67
2022/04/05 01:57:34;;;;;;;12.15;7.13;;;;;;;2.83;100.00;90543.97;4992423;28;20027;-67
2022/04/05 02:00:02;;;;;;;12.57;8.57;;;;;;;2.69;100.00;90541.19;4992366;28;20042;-67
2022/04/05 02:02:27;;;;;;;11.55;8.10;;;;;;;2.62;100.00;90540.66;4992585;28;20031;-68
2022/04/05 02:04:53;;;;;;;12.40;9.07;;;;;;;2.58;100.00;90552.78;4992425;28;20042;-67
2022/04/05 02:07:19;;;;;;;12.00;8.30;;;;;;;2.57;100.00;90539.91;4992363;28;20014;-67
2022/04/05 02:09:47;;;;;;;14.43;9.35;;;;;;;2.55;100.00;90532.31;4992382;28;20030;-67
2022/04/05 02:12:13;;;;;;;11.63;7.88;;;;;;;2.54;100.00;90525.50;4992321;28;20038;-67
2022/04/05 02:14:39;;;;;;;15.98;10.77;;;;;;;2.63;100.00;90526.47;4992197;28;20026;-66
2022/04/05 02:17:06;;;;;;;19.45;12.05;;;;;;;2.65;100.00;90528.84;4992182;28;20121;-66
2022/04/05 02:19:31;;;;;;;19.52;11.85;;;;;;;2.66;100.00;90533.81;4992467;28;20034;-67
2022/04/05 02:21:57;;;;;;;16.73;11.32;;;;;;;2.62;100.00;90532.00;4990822;28;20096;-67
2022/04/05 02:24:23;;;;;;;16.95;10.57;;;;;;;2.61;100.00;90525.97;4992190;28;20253;-65
2022/04/05 02:26:49;;;;;;;20.48;10.88;;;;;;;2.61;100.00;90525.19;4991772;28;20463;-67
2022/04/05 02:29:15;;;;;;;13.95;8.65;;;;;;;2.65;100.00;90516.50;4991690;28;20026;-67
2022/04/05 02:31:41;;;;;;;13.48;8.23;;;;;;;2.79;100.00;90515.91;4991933;28;20092;-67
2022/04/05 02:34:07;;;;;;;12.55;7.90;;;;;;;2.78;100.00;90511.72;4991808;28;20039;-67
2022/04/05 02:36:33;;;;;;;10.45;7.97;;;;;;;2.69;100.00;90514.91;4992010;28;20022;-67
2022/04/05 02:38:58;;;;;;;16.63;8.10;;;;;;;2.70;100.00;90508.59;4991903;28;20027;-67
2022/04/05 02:41:24;;;;;;;13.40;8.55;;;;;;;2.67;100.00;90508.34;4991852;28;20030;-66
2022/04/05 02:43:49;;;;;;;9.10;7.10;;;;;;;2.55;100.00;90498.19;4991747;28;20043;-67
2022/04/05 02:46:15;;;;;;;12.82;7.38;;;;;;;2.67;100.00;90511.75;4991728;28;20519;-68
2022/04/05 02:48:43;;;;;;;13.05;7.78;;;;;;;2.73;100.00;90501.25;4991749;28;20105;-68
2022/04/05 02:51:13;;;;;;;15.80;8.30;;;;;;;2.62;100.00;90501.28;4991716;28;20029;-67
2022/04/05 02:53:39;;;;;;;11.70;7.85;;;;;;;2.63;100.00;90507.31;4991644;28;20045;-67
2022/04/05 02:56:07;;;;;;;13.77;9.75;;;;;;;2.60;100.00;90506.03;4991882;28;20117;-67
2022/04/05 02:58:36;;;;;;;11.45;8.20;;;;;;;2.48;100.00;90497.69;4991892;28;20034;-66
2022/04/05 03:01:03;;;;;;;8.85;7.10;;;;;;;2.39;100.00;90500.09;4991593;28;20453;-66
2022/04/05 03:03:28;;;;;;;12.20;7.55;;;;;;;2.35;100.00;90496.41;4991542;28;20116;-66
2022/04/05 03:05:54;;;;;;;10.35;7.40;;;;;;;2.27;100.00;90493.59;4991571;28;20066;-66
2022/04/05 03:08:20;;;;;;;12.07;7.50;;;;;;;2.16;100.00;90495.47;4991531;28;20030;-66
2022/04/05 03:10:45;;;;;;;10.85;7.43;;;;;;;2.11;100.00;90498.09;4991563;28;20535;-66
2022/04/05 03:13:12;;;;;;;13.13;8.95;;;;;;;2.04;100.00;90492.34;4995562;28;20504;-66
2022/04/05 03:15:37;;;;;;;13.90;9.65;;;;;;;1.99;100.00;90493.16;4995485;28;20045;-66
2022/04/05 03:18:02;;;;;;;18.80;11.35;;;;;;;1.99;100.00;90495.78;4995497;28;20412;-66
2022/04/05 03:20:28;;;;;;;26.52;17.40;;;;;;;2.03;100.00;90491.56;4995487;28;20495;-66
2022/04/05 03:22:55;;;;;;;16.15;10.10;;;;;;;2.14;100.00;90483.66;4995391;28;20045;-66
2022/04/05 03:25:22;;;;;;;17.65;10.88;;;;;;;2.23;100.00;90489.94;4995075;28;20427;-66
2022/04/05 03:27:48;;;;;;;26.95;18.65;;;;;;;2.32;100.00;90489.09;4995246;28;20030;-67
2022/04/05 03:30:15;;;;;;;22.58;14.00;;;;;;;2.44;100.00;90486.16;4995405;28;20026;-67
2022/04/05 03:32:41;;;;;;;12.43;9.10;;;;;;;2.48;100.00;90484.56;4995272;28;20034;-66
2022/04/05 03:35:08;;;;;;;17.75;10.52;;;;;;;2.41;100.00;90489.31;4995088;28;20030;-67
2022/04/05 03:37:35;;;;;;;38.45;12.88;;;;;;;2.40;100.00;90477.25;4995149;28;20034;-68
2022/04/05 03:40:01;;;;;;;39.95;15.50;;;;;;;2.42;100.00;90477.78;4995101;28;20048;-68
2022/04/05 03:42:26;;;;;;;19.83;10.48;;;;;;;2.43;100.00;90481.97;4995136;28;20028;-67
2022/04/05 03:44:52;;;;;;;19.35;10.95;;;;;;;2.46;100.00;90481.41;4994956;28;20113;-66
2022/04/05 03:47:18;;;;;;;12.65;9.43;;;;;;;2.48;100.00;90489.81;4994927;28;20023;-67
2022/04/05 03:49:44;;;;;;;13.60;9.55;;;;;;;2.39;100.00;90473.06;4995000;28;20037;-67
2022/04/05 03:52:09;;;;;;;16.60;11.25;;;;;;;2.30;100.00;90469.41;4994872;28;20057;-67
2022/04/05 03:54:35;;;;;;;17.20;11.45;;;;;;;2.33;100.00;90476.75;4994754;28;20034;-66
2022/04/05 03:57:00;;;;;;;24.27;15.77;;;;;;;2.40;100.00;90487.75;4994743;28;20489;-66
2022/04/05 03:59:26;;;;;;;26.00;14.98;;;;;;;2.32;100.00;90475.19;4994773;28;20113;-66
2022/04/05 04:01:51;;;;;;;26.20;16.00;;;;;;;2.29;100.00;90486.22;4994803;28;20042;-66
2022/04/05 04:04:17;;;;;;;22.15;13.63;;;;;;;2.23;100.00;90479.44;4994592;28;20030;-66
2022/04/05 04:06:42;;;;;;;26.23;13.80;;;;;;;2.18;100.00;90487.31;4994626;28;20030;-66
2022/04/05 04:09:08;;;;;;;21.77;13.93;;;;;;;2.18;100.00;90489.94;4994597;28;20026;-68
2022/04/05 04:11:33;;;;;;;27.40;13.65;;;;;;;2.21;100.00;90481.53;4994513;28;20038;-68
2022/04/05 04:13:59;;;;;;;45.22;21.23;;;;;;;2.24;100.00;90491.50;4994430;28;20030;-69
2022/04/05 04:16:25;;;;;;;72.05;37.35;;;;;;;2.23;100.00;90489.94;4993144;28;20511;-67
2022/04/05 04:18:51;;;;;;;55.88;28.80;;;;;;;2.18;100.00;90480.22;4994366;28;20034;-67
2022/04/05 04:21:16;;;;;;;48.83;26.92;;;;;;;2.57;100.00;90493.44;4994023;28;20057;-67
2022/04/05 04:23:42;;;;;;;28.35;14.63;;;;;;;2.41;100.00;90486.69;4994305;28;20030;-67
2022/04/05 04:26:07;;;;;;;24.77;13.75;;;;;;;2.40;100.00;90490.38;4992731;28;20048;-66
2022/04/05 04:28:35;;;;;;;35.80;15.23;;;;;;;2.32;100.00;90489.09;4994154;28;20037;-68
2022/04/05 04:31:00;;;;;;;24.13;13.93;;;;;;;2.35;100.00;90485.91;4994478;28;20034;-68
2022/04/05 04:33:26;;;;;;;39.65;17.00;;;;;;;2.45;100.00;90489.56;4994072;28;20463;-68
2022/04/05 04:35:52;;;;;;;51.88;30.48;;;;;;;2.57;100.00;90485.56;4994094;28;20403;-67
2022/04/05 04:38:18;;;;;;;46.03;27.27;;;;;;;2.76;100.00;90488.34;4994017;28;20058;-67
2022/04/05 04:40:48;;;;;;;61.70;26.13;;;;;;;2.77;100.00;90478.63;4993977;28;20092;-68
2022/04/05 04:43:17;;;;;;;37.42;17.60;;;;;;;2.82;100.00;90494.34;4994144;28;20056;-67
2022/04/05 04:45:44;;;;;;;85.60;28.48;;;;;;;2.62;100.00;90490.00;4993859;28;20034;-67
2022/04/05 04:48:10;;;;;;;45.42;19.83;;;;;;;2.67;100.00;90489.97;4993846;28;20026;-67
2022/04/05 04:50:36;;;;;;;42.88;20.75;;;;;;;2.84;100.00;90494.84;4993873;28;20030;-67
2022/04/05 04:53:02;;;;;;;64.65;30.77;;;;;;;2.92;100.00;90487.19;4993486;28;20034;-67
2022/04/05 04:55:28;;;;;;;53.50;21.83;;;;;;;3.13;100.00;90493.06;4992267;28;20039;-69
2022/04/05 04:57:54;;;;;;;49.50;23.35;;;;;;;3.27;100.00;90494.03;4993735;28;20088;-67
2022/04/05 05:00:19;;;;;;;36.85;19.40;;;;;;;3.35;100.00;90487.41;4993650;28;20092;-67
2022/04/05 05:02:47;;;;;;;58.47;28.58;;;;;;;3.47;100.00;90484.41;4993193;28;20110;-68
2022/04/05 05:05:12;;;;;;;47.47;20.52;;;;;;;3.50;100.00;90484.66;4993669;28;20026;-67
2022/04/05 05:07:40;;;;;;;31.95;18.13;;;;;;;3.59;100.00;90488.22;4993511;28;20503;-67
2022/04/05 05:10:07;;;;;;;23.27;13.02;;;;;;;3.60;100.00;90483.75;4993537;28;20089;-67
2022/04/05 05:12:33;;;;;;;34.80;13.13;;;;;;;3.67;100.00;90486.88;4993433;28;20065;-67
2022/04/05 05:14:59;;;;;;;30.08;15.40;;;;;;;4.05;100.00;90479.91;4993446;28;20030;-67
2022/04/05 05:17:24;;;;;;;77.68;20.75;;;;;;;4.63;100.00;90478.97;4993351;28;20030;-67
2022/04/05 05:19:50;;;;;;;41.13;18.85;;;;;;;4.49;100.00;90481.50;4990216;28;20403;-69
2022/04/05 05:22:16;;;;;;;35.53;19.35;;;;;;;4.37;100.00;90476.63;5009054;28;20033;-68
2022/04/05 05:24:41;;;;;;;27.38;17.17;;;;;;;4.49;100.00;90478.88;5012353;28;20022;-68
2022/04/05 05:27:06;;;;;;;23.95;14.27;;;;;;;4.84;100.00;90479.47;5011937;28;20054;-68
2022/04/05 05:29:32;;;;;;;56.40;24.92;;;;;;;4.78;100.00;90492.72;5012440;28;20598;-69
2022/04/05 05:31:57;;;;;;;61.38;30.75;;;;;;;4.73;100.00;90478.81;5012266;28;20022;-68
2022/04/05 05:34:24;;;;;;;27.10;13.52;;;;;;;4.77;100.00;90490.38;5011255;28;20117;-68
2022/04/05 05:36:50;;;;;;;40.90;22.58;;;;;;;4.89;100.00;90490.75;5011994;28;20037;-68
2022/04/05 05:39:16;;;;;;;28.63;16.00;;;;;;;4.86;100.00;90488.66;5012275;28;20026;-69
2022/04/05 05:41:41;;;;;;;54.00;20.83;;;;;;;5.06;100.00;90491.03;5012112;28;20034;-68
2022/04/05 05:44:07;;;;;;;60.17;27.88;;;;;;;5.49;100.00;90485.59;5011725;28;20096;-69
2022/04/05 05:46:32;;;;;;;42.10;19.30;;;;;;;5.89;100.00;90489.44;5011736;28;20037;-68
2022/04/05 05:48:58;;;;;;;35.38;16.65;;;;;;;6.27;100.00;90484.81;5011620;28;20041;-68
2022/04/05 05:51:23;;;;;;;30.70;15.95;;;;;;;5.96;100.00;90484.59;5011682;28;20030;-68
2022/04/05 05:53:48;;;;;;;32.58;14.80;;;;;;;5.80;100.00;90474.56;5011892;28;20056;-68
2022/04/05 05:56:14;;;;;;;26.23;14.23;;;;;;;6.22;100.00;90482.28;5011578;28;20021;-68
2022/04/05 05:58:40;;;;;;;28.20;14.52;;;;;;;5.95;100.00;90480.38;5011634;28;20496;-67
2022/04/05 06:01:06;;;;;;;23.63;15.05;;;;;;;6.09;100.00;90488.31;5011915;28;20037;-66
2022/04/05 06:03:31;;;;;;;29.02;17.58;;;;;;;6.26;100.00;90477.97;5011397;28;20095;-67
2022/04/05 06:05:57;;;;;;;20.50;13.07;;;;;;;6.38;100.00;90490.69;5011535;28;20025;-67
2022/04/05 06:08:22;;;;;;;12.65;9.43;;;;;;;5.86;100.00;90478.69;5011721;28;20026;-66
2022/04/05 06:10:47;;;;;;;18.80;10.13;;;;;;;5.91;100.00;90482.03;5011561;28;20030;-66
2022/04/05 06:13:13;;;;;;;20.77;9.98;;;;;;;5.88;100.00;90487.09;5011788;28;20108;-68
2022/04/05 06:15:38;;;;;;;20.77;8.95;;;;;;;6.06;100.00;90478.34;5011561;28;20088;-69
2022/04/05 06:18:04;;;;;;;14.15;7.85;;;;;;;6.36;100.00;90477.00;5011203;28;20068;-69
2022/04/05 06:20:30;;;;;;;15.88;8.60;;;;;;;6.43;100.00;90472.09;5011503;28;20515;-69
2022/04/05 06:22:59;;;;;;;16.80;9.65;;;;;;;6.30;100.00;90497.44;5011331;28;20092;-68
2022/04/05 06:25:29;;;;;;;40.65;9.52;;;;;;;5.99;100.00;90488.50;5011207;28;20042;-69
2022/04/05 06:27:56;;;;;;;47.63;12.48;;;;;;;5.70;100.00;90489.50;5011306;28;20029;-69
2022/04/05 06:30:22;;;;;;;12.43;6.78;;;;;;;5.43;100.00;90484.13;5011359;28;20146;-70
2022/04/05 06:32:47;;;;;;;23.27;11.48;;;;;;;5.51;100.00;90496.66;5010951;28;20500;-69
2022/04/05 06:35:13;;;;;;;40.03;9.40;;;;;;;5.45;100.00;90491.75;5010647;28;20060;-68
2022/04/05 06:37:43;;;;;;;14.40;6.43;;;;;;;5.84;100.00;90497.47;5010879;28;20373;-66
2022/04/05 06:40:09;;;;;;;72.15;38.08;;;;;;;6.00;100.00;90490.88;5009932;28;20422;-70
2022/04/05 06:42:41;;;;;;;68.00;30.27;;;;;;;6.22;100.00;90492.84;5011213;28;20037;-69
2022/04/05 06:45:17;;;;;;;38.45;14.32;;;;;;;6.36;100.00;90494.72;5010920;28;20492;-68
2022/04/05 06:47:43;;;;;;;33.60;14.23;;;;;;;7.21;100.00;90501.94;5010904;28;20141;-67
2022/04/05 06:50:09;;;;;;;116.30;71.57;;;;;;;7.50;100.00;90497.06;5010868;28;20467;-69
2022/04/05 06:52:40;;;;;;;44.92;13.85;;;;;;;8.17;100.00;90492.78;5010933;28;20084;-69
2022/04/05 06:55:07;;;;;;;88.40;10.98;;;;;;;8.96;100.00;90501.56;5010646;28;20084;-68
2022/04/05 06:57:33;;;;;;;42.75;10.90;;;;;;;10.56;89.73;90491.03;5004445;28;20648;-69
2022/04/05 06:59:58;;;;;;;112.28;28.35;;;;;;;13.02;78.62;90506.06;4991183;28;20022;-71
2022/04/05 07:02:23;;;;;;;78.10;14.07;;;;;;;11.86;72.68;90507.88;4991371;28;20034;-69
2022/04/05 07:04:49;;;;;;;27.15;12.68;;;;;;;11.55;71.39;90502.09;4989923;28;20799;-71
2022/04/05 07:07:14;;;;;;;34.35;12.70;;;;;;;12.06;71.89;90505.50;4990989;28;20034;-71
2022/04/05 07:09:40;;;;;;;49.58;26.95;;;;;;;13.03;68.45;90502.28;4990874;28;20062;-69
2022/04/05 07:12:07;;;;;;;51.15;12.73;;;;;;;13.23;67.20;90508.63;4991161;28;20540;-68
2022/04/05 07:14:33;;;;;;;40.10;14.80;;;;;;;12.52;68.52;90505.19;4991275;28;20038;-68
2022/04/05 07:16:59;;;;;;;31.38;15.90;;;;;;;11.05;75.02;90506.31;4993586;28;20035;-68
2022/04/05 07:19:24;;;;;;;34.35;23.42;;;;;;;11.60;75.26;90502.69;4990600;28;20090;-69
2022/04/05 07:21:50;;;;;;;88.05;21.77;;;;;;;11.79;74.03;90504.16;4998979;28;20083;-70
2022/04/05 07:24:17;;;;;;;47.15;16.42;;;;;;;11.02;77.71;90506.94;4995318;28;20184;-69
2022/04/05 07:26:42;;;;;;;53.28;25.55;;;;;;;10.16;83.54;90505.34;4998828;28;20050;-69
2022/04/05 07:29:07;;;;;;;35.28;14.48;;;;;;;10.49;84.78;90513.56;4994458;28;20341;-69
2022/04/05 07:31:33;;;;;;;40.33;13.80;;;;;;;10.49;85.16;90507.47;4990370;28;20268;-70
2022/04/05 07:33:58;;;;;;;24.17;12.10;;;;;;;11.02;81.17;90501.63;4999698;28;20018;-70
2022/04/05 07:36:24;;;;;;;15.52;10.20;;;;;;;11.66;77.83;90511.25;4996341;28;20129;-67
2022/04/05 07:38:49;;;;;;;25.77;12.40;;;;;;;11.28;78.11;90503.38;5005129;28;20038;-68
2022/04/05 07:41:15;;;;;;;19.75;7.70;;;;;;;11.67;73.89;90507.47;5010507;28;20037;-69
2022/04/05 07:43:40;;;;;;;15.93;7.05;;;;;;;10.65;77.74;90503.19;5010733;28;20033;-69
2022/04/05 07:46:06;;;;;;;30.92;7.35;;;;;;;10.28;77.50;90495.97;5010329;28;20034;-69
2022/04/05 07:48:31;;;;;;;24.35;7.25;;;;;;;10.83;78.46;90503.91;5010096;28;20030;-67
2022/04/05 07:50:57;;;;;;;72.65;9.57;;;;;;;10.91;77.04;90481.03;5010666;28;20484;-67
2022/04/05 07:53:23;;;;;;;81.40;39.78;;;;;;;10.85;77.17;90498.25;5010374;28;20076;-68
2022/04/05 07:55:48;;;;;;;214.90;134.77;;;;;;;10.14;80.52;90493.47;5010418;28;20028;-69
2022/04/05 07:58:14;;;;;;;261.05;26.30;;;;;;;10.75;77.11;90494.09;5014059;28;20559;-69
2022/04/05 08:00:39;;;;;;;42.67;21.38;;;;;;;11.35;76.16;90493.75;5013897;28;20077;-68
2022/04/05 08:03:05;;;;;;;54.88;12.23;;;;;;;12.71;70.43;90499.34;5013546;28;20038;-68
2022/04/05 08:05:31;;;;;;;14.15;7.80;;;;;;;12.59;67.09;90504.66;5012575;28;20030;-67
2022/04/05 08:07:56;;;;;;;17.65;7.35;;;;;;;11.83;68.30;90500.50;5013885;28;20033;-67
2022/04/05 08:10:22;;;;;;;31.25;18.20;;;;;;;12.14;70.47;90505.41;5012562;28;20116;-66
2022/04/05 08:12:51;;;;;;;93.75;18.70;;;;;;;12.09;69.31;90492.28;5006245;28;20125;-69
2022/04/05 08:15:19;;;;;;;13.38;5.72;;;;;;;11.68;69.32;90493.09;5010982;28;20068;-67
2022/04/05 08:17:45;;;;;;;20.55;8.25;;;;;;;12.13;66.69;90485.19;5012811;28;20061;-65
2022/04/05 08:20:11;;;;;;;15.20;7.25;;;;;;;12.41;64.19;90476.59;5013505;28;20033;-65
2022/04/05 08:22:37;;;;;;;18.67;6.53;;;;;;;13.35;62.13;90472.03;5013274;28;20050;-66
2022/04/05 08:25:04;;;;;;;161.75;103.72;;;;;;;16.62;53.96;90478.47;5012615;28;20017;-67
2022/04/05 08:27:29;;;;;;;86.15;60.28;;;;;;;17.13;48.25;90470.19;5010255;28;20101;-65
2022/04/05 08:29:54;;;;;;;18.27;11.60;;;;;;;17.07;47.10;90475.09;5011625;28;20112;-66
2022/04/05 08:32:20;;;;;;;29.98;13.07;;;;;;;18.19;46.40;90474.47;5011713;28;20088;-67
2022/04/05 08:34:46;;;;;;;51.10;18.77;;;;;;;18.22;43.91;90481.03;5011725;28;20022;-66
2022/04/05 08:37:13;;;;;;;36.42;11.38;;;;;;;19.23;44.03;90473.66;5012268;28;20116;-67
2022/04/05 08:39:40;;;;;;;69.40;17.27;;;;;;;22.41;39.04;90477.09;5011996;28;20032;-68
2022/04/05 08:42:06;;;;;;;52.30;12.43;;;;;;;21.74;37.52;90469.03;4993881;28;20061;-68
2022/04/05 08:44:32;;;;;;;16.17;9.75;;;;;;;24.19;35.85;90470.59;5002402;28;20025;-68
2022/04/05 08:47:00;;;;;;;29.27;8.55;;;;;;;26.99;31.42;90464.25;5011358;28;20034;-69
2022/04/05 08:49:28;;;;;;;11.98;6.30;;;;;;;26.41;31.33;90465.75;5011460;28;20026;-67
2022/04/05 08:51:54;;;;;;;9.32;4.32;;;;;;;28.11;29.15;90464.16;5011063;28;20037;-67
2022/04/05 08:54:19;;;;;;;40.85;8.13;;;;;;;26.99;29.24;90461.53;5011366;28;20496;-66
2022/04/05 08:56:46;;;;;;;12.10;3.35;;;;;;;23.27;32.25;90466.63;5011651;28;20407;-67
2022/04/05 08:59:11;;;;;;;66.60;7.78;;;;;;;20.02;35.34;90459.63;5012137;28;20025;-67
2022/04/05 09:01:37;;;;;;;6.75;3.80;;;;;;;22.27;35.20;90460.09;4991980;28;20484;-66
2022/04/05 09:04:04;;;;;;;7.00;3.72;;;;;;;21.18;33.22;90457.00;4991078;28;20022;-66
2022/04/05 09:06:34;;;;;;;13.55;5.20;;;;;;;23.23;31.17;90448.84;5002255;28;20034;-72
2022/04/05 09:09:14;;;;;;;5.40;2.67;;;;;;;23.20;30.87;90444.22;5010492;28;20037;-68
2022/04/05 09:11:52;;;;;;;56.20;8.18;;;;;;;24.12;30.80;90434.56;5010305;28;20466;-68
2022/04/05 09:14:26;;;;;;;3.47;3.17;;;;;;;21.98;32.88;90446.56;5011923;28;20038;-67
2022/04/05 09:17:12;;;;;;;19.58;4.40;;;;;;;18.27;38.01;90449.16;5011258;28;20022;-69
2022/04/05 09:19:42;;;;;;;10.35;4.82;;;;;;;15.31;41.78;90455.06;5011138;28;20041;-67
2022/04/05 09:22:08;;;;;;;11.40;4.15;;;;;;;15.64;43.16;90452.78;5011330;28;20393;-67
2022/04/05 09:24:35;;;;;;;5.88;4.35;;;;;;;19.15;40.23;90439.72;5011519;28;20030;-68
2022/04/05 09:27:01;;;;;;;7.28;4.35;;;;;;;23.04;32.48;90444.69;4973269;28;1128042;-68
2022/04/05 09:29:47;;;;;;;11.27;4.03;;;;;;;23.31;33.43;90436.75;5012207;28;20117;-69
2022/04/05 09:32:32;;;;;;;9.80;3.83;;;;;;;23.60;31.54;90443.56;5012068;28;20512;-68
2022/04/05 09:34:58;;;;;;;10.65;3.90;;;;;;;25.42;30.02;90449.00;5012521;28;20064;-68
2022/04/05 09:37:26;;;;;;;6.05;3.63;;;;;;;24.38;30.21;90438.59;5012381;28;20046;-68
2022/04/05 09:39:51;;;;;;;11.73;4.30;;;;;;;22.75;32.05;90440.56;5012252;28;20049;-68
2022/04/05 09:42:16;;;;;;;40.40;6.22;;;;;;;24.09;31.84;90438.84;5012136;28;20037;-71
2022/04/05 09:44:44;;;;;;;12.68;4.30;;;;;;;23.11;31.34;90431.06;5012019;28;20072;-68
2022/04/05 09:47:16;;;;;;;26.05;6.22;;;;;;;19.21;35.69;90427.41;5011648;28;20116;-69
2022/04/05 09:49:44;;;;;;;6.38;3.50;;;;;;;20.40;34.95;90435.91;5011734;28;20066;-70
2022/04/05 09:52:30;;;;;;;4.38;3.80;;;;;;;23.20;31.31;90417.84;5012017;28;20097;-69
2022/04/05 09:55:08;;;;;;;5.95;3.88;;;;;;;23.75;31.86;90424.44;5011676;28;20054;-69
2022/04/05 09:57:34;;;;;;;4.28;3.80;;;;;;;24.66;30.62;90432.84;5011124;28;20068;-67
2022/04/05 10:00:13;;;;;;;6.32;4.18;;;;;;;27.24;27.77;90424.75;5011932;28;20121;-67
2022/04/05 10:03:02;;;;;;;17.17;4.97;;;;;;;27.59;27.09;90415.75;5011418;28;20488;-71
2022/04/05 10:05:32;;;;;;;11.93;4.60;;;;;;;26.17;27.66;90421.31;5011814;28;20552;-71
2022/04/05 10:07:58;;;;;;;6.40;4.60;;;;;;;20.58;33.63;90409.72;5011653;28;20041;-70
2022/04/05 10:10:24;;;;;;;6.03;4.70;;;;;;;21.00;35.81;90412.94;5010058;28;20041;-71
2022/04/05 10:12:51;;;;;;;22.05;5.90;;;;;;;23.02;33.14;90400.88;5009783;28;20123;-71
2022/04/05 10:15:18;;;;;;;78.40;17.85;;;;;;;21.71;33.92;90404.81;5010872;28;20139;-67
2022/04/05 10:17:45;;;;;;;76.15;9.07;;;;;;;19.03;36.86;90405.72;5010168;28;20048;-70
2022/04/05 10:20:15;;;;;;;5.70;3.10;;;;;;;21.68;34.29;90398.25;5011159;28;20041;-70
2022/04/05 10:22:42;;;;;;;11.75;3.25;;;;;;;24.87;30.80;90393.72;5011206;28;20037;-71
2022/04/05 10:25:08;;;;;;;3.22;2.58;;;;;;;24.05;30.70;90394.66;5006657;28;20077;-72
2022/04/05 10:27:34;;;;;;;4.38;2.50;;;;;;;22.03;32.91;90388.50;4991568;28;20045;-70
2022/04/05 10:30:10;;;;;;;29.63;4.97;;;;;;;22.24;33.99;90390.41;4991845;28;20039;-70
2022/04/05 10:33:01;;;;;;;7.03;3.55;;;;;;;21.56;35.24;90384.34;4992641;28;20034;-69
2022/04/05 10:35:29;;;;;;;15.85;7.43;;;;;;;21.19;34.24;90390.91;4991794;28;20034;-69
2022/04/05 10:38:17;;;;;;;10.05;4.63;;;;;;;20.76;35.05;90387.38;4991451;28;20042;-70
2022/04/05 10:40:42;;;;;;;5.55;2.60;;;;;;;20.89;35.34;90383.94;4991642;28;20038;-67
2022/04/05 10:43:19;;;;;;;5.10;3.17;;;;;;;20.30;36.61;90393.41;4991247;28;20049;-68
2022/04/05 10:45:45;;;;;;;4.95;2.63;;;;;;;21.64;34.82;90372.34;4990933;28;20038;-68
2022/04/05 10:48:16;;;;;;;12.48;2.80;;;;;;;22.76;32.94;90380.50;4991303;28;20488;-67
2022/04/05 10:51:01;;;;;;;13.70;3.03;;;;;;;19.61;36.90;90377.25;4991678;28;20488;-68
2022/04/05 10:53:33;;;;;;;20.58;5.00;;;;;;;17.95;40.82;90370.72;4976235;28;20193;-69
2022/04/05 10:56:09;;;;;;;91.05;8.52;;;;;;;16.16;43.32;90371.81;4991409;28;20456;-67
2022/04/05 10:58:37;;;;;;;12.43;3.97;;;;;;;15.74;48.21;90369.06;4991347;28;20057;-68
2022/04/05 11:01:33;;;;;;;10.63;3.47;;;;;;;18.43;41.27;90364.69;4990972;28;20452;-68
2022/04/05 11:04:18;;;;;;;19.45;3.40;;;;;;;20.38;39.54;90362.56;4991108;28;20076;-68
2022/04/05 11:07:02;;;;;;;16.65;3.10;;;;;;;22.34;35.33;90349.72;4991269;28;20476;-68
2022/04/05 11:09:32;;;;;;;;;;;;;;;22.73;33.25;90356.88;4991557;28;20096;-67
2022/04/05 11:12:01;;;;;;;18.67;3.03;;;;;;;21.15;35.16;90360.38;4991175;28;19920;-67
2022/04/05 11:14:49;;;;;;;13.18;3.97;;;;;;;18.67;38.92;90347.25;4991483;28;20454;-67
2022/04/05 11:17:16;;;;;;;5.57;3.05;;;;;;;17.34;41.88;90341.47;4990953;28;20069;-67
2022/04/05 11:19:44;;;;;;;5.32;3.10;;;;;;;16.58;42.58;90343.38;4991190;28;20097;-67
2022/04/05 11:22:19;;;;;;;10.35;4.20;;;;;;;19.14;39.15;90333.78;4991139;28;20658;-67